createdAt,value
2018-09-18T00:00:19.916Z,63.50
2018-09-18T00:00:51.784Z,63.50
2018-09-18T00:01:23.775Z,63.50
2018-09-18T00:01:55.801Z,63.50
2018-09-18T00:02:27.704Z,63.50
2018-09-18T00:02:59.517Z,63.50
2018-09-18T00:03:31.357Z,63.50
2018-09-18T00:04:03.156Z,63.50
2018-09-18T00:04:35.139Z,63.50
2018-09-18T00:05:07.014Z,63.90
2018-09-18T00:05:39.344Z,63.50
2018-09-18T00:06:11.171Z,63.50
2018-09-18T00:06:43.084Z,63.50
2018-09-18T00:07:14.995Z,63.40
2018-09-18T00:07:46.848Z,63.50
2018-09-18T00:08:18.889Z,63.50
2018-09-18T00:08:50.749Z,64.20
2018-09-18T00:09:22.576Z,63.50
2018-09-18T00:09:54.475Z,63.50
2018-09-18T00:10:26.468Z,63.40
2018-09-18T00:10:58.638Z,63.50
2018-09-18T00:11:30.681Z,63.40
2018-09-18T00:12:02.456Z,63.40
2018-09-18T00:12:34.315Z,63.50
2018-09-18T00:13:06.177Z,63.50
2018-09-18T00:13:38.065Z,63.30
2018-09-18T00:14:09.941Z,63.50
2018-09-18T00:14:41.825Z,63.50
2018-09-18T00:15:13.780Z,63.40
2018-09-18T00:15:45.673Z,63.50
2018-09-18T00:16:17.544Z,63.50
2018-09-18T00:16:49.597Z,63.60
2018-09-18T00:17:21.413Z,63.50
2018-09-18T00:17:53.232Z,63.50
2018-09-18T00:18:25.035Z,63.50
2018-09-18T00:18:56.963Z,63.50
2018-09-18T00:19:28.772Z,63.50
2018-09-18T00:20:00.593Z,63.50
2018-09-18T00:20:32.390Z,63.50
2018-09-18T00:21:04.253Z,63.40
2018-09-18T00:21:36.092Z,63.40
2018-09-18T00:22:08.096Z,63.40
2018-09-18T00:22:40.044Z,63.40
2018-09-18T00:23:12.028Z,63.40
2018-09-18T00:23:43.830Z,63.50
2018-09-18T00:24:15.722Z,63.40
2018-09-18T00:24:47.544Z,63.40
2018-09-18T00:25:19.632Z,63.30
2018-09-18T00:25:51.672Z,63.40
2018-09-18T00:26:23.621Z,63.40
2018-09-18T00:26:55.454Z,63.30
2018-09-18T00:27:27.452Z,63.30
2018-09-18T00:27:59.294Z,63.40
2018-09-18T00:28:31.242Z,63.50
2018-09-18T00:29:03.121Z,63.40
2018-09-18T00:29:34.978Z,63.30
2018-09-18T00:30:06.796Z,63.30
2018-09-18T00:30:38.770Z,63.40
2018-09-18T00:31:10.596Z,63.30
2018-09-18T00:31:42.399Z,63.40
2018-09-18T00:32:14.492Z,63.30
2018-09-18T00:32:46.383Z,63.30
2018-09-18T00:33:18.271Z,63.20
2018-09-18T00:33:50.210Z,63.30
2018-09-18T00:34:22.108Z,63.30
2018-09-18T00:34:54.092Z,63.30
2018-09-18T00:35:25.940Z,63.40
2018-09-18T00:35:57.793Z,63.40
2018-09-18T00:36:29.620Z,63.30
2018-09-18T00:37:01.481Z,63.30
2018-09-18T00:37:33.358Z,63.30
2018-09-18T00:38:05.220Z,63.20
2018-09-18T00:38:37.185Z,63.30
2018-09-18T00:39:09.015Z,63.30
2018-09-18T00:39:40.841Z,63.30
2018-09-18T00:40:12.686Z,63.30
2018-09-18T00:40:44.764Z,63.30
2018-09-18T00:41:16.591Z,63.20
2018-09-18T00:41:48.469Z,63.40
2018-09-18T00:42:20.320Z,63.30
2018-09-18T00:42:52.220Z,63.00
2018-09-18T00:43:24.091Z,63.30
2018-09-18T00:43:56.017Z,63.20
2018-09-18T00:44:27.971Z,64.00
2018-09-18T00:44:59.820Z,63.30
2018-09-18T00:45:31.761Z,63.30
2018-09-18T00:46:03.570Z,63.90
2018-09-18T00:46:35.380Z,63.20
2018-09-18T00:47:07.186Z,63.20
2018-09-18T00:47:39.287Z,64.00
2018-09-18T00:48:11.083Z,63.30
2018-09-18T00:48:43.079Z,63.30
2018-09-18T00:49:14.918Z,63.30
2018-09-18T00:49:46.912Z,63.30
2018-09-18T00:50:18.787Z,63.20
2018-09-18T00:50:50.644Z,63.20
2018-09-18T00:51:22.449Z,63.20
2018-09-18T00:51:54.238Z,63.30
2018-09-18T00:52:26.021Z,63.20
2018-09-18T00:52:57.969Z,63.30
2018-09-18T00:53:29.784Z,63.30
2018-09-18T00:54:01.725Z,63.30
2018-09-18T00:54:33.754Z,63.20
2018-09-18T00:55:05.656Z,63.20
2018-09-18T00:55:37.477Z,63.10
2018-09-18T00:56:09.518Z,63.30
2018-09-18T00:56:41.316Z,63.20
2018-09-18T00:57:13.120Z,63.20
2018-09-18T00:57:45.150Z,63.30
2018-09-18T00:58:17.042Z,63.90
2018-09-18T00:58:48.877Z,63.20
2018-09-18T00:59:20.700Z,63.00
2018-09-18T00:59:52.507Z,63.20
2018-09-18T01:00:24.406Z,63.10
2018-09-18T01:00:56.487Z,63.10
2018-09-18T01:01:28.358Z,63.10
2018-09-18T01:02:00.206Z,63.20
2018-09-18T01:02:32.176Z,63.20
2018-09-18T01:03:03.975Z,63.20
2018-09-18T01:03:35.867Z,63.20
2018-09-18T01:04:07.805Z,63.20
2018-09-18T01:04:39.572Z,63.20
2018-09-18T01:05:11.401Z,63.20
2018-09-18T01:05:43.229Z,63.10
2018-09-18T01:06:15.067Z,63.20
2018-09-18T01:06:47.063Z,63.20
2018-09-18T01:07:18.916Z,63.30
2018-09-18T01:07:50.939Z,63.20
2018-09-18T01:08:22.714Z,63.20
2018-09-18T01:08:54.522Z,63.20
2018-09-18T01:09:26.385Z,63.10
2018-09-18T01:09:58.272Z,63.10
2018-09-18T01:10:30.130Z,63.10
2018-09-18T01:11:01.965Z,63.20
2018-09-18T01:11:33.774Z,63.20
2018-09-18T01:12:05.745Z,63.10
2018-09-18T01:12:37.777Z,63.10
2018-09-18T01:13:09.575Z,62.50
2018-09-18T01:13:41.457Z,63.10
2018-09-18T01:14:13.414Z,63.10
2018-09-18T01:14:45.203Z,63.10
2018-09-18T01:15:17.056Z,63.10
2018-09-18T01:15:48.924Z,63.10
2018-09-18T01:16:20.809Z,63.10
2018-09-18T01:16:53.266Z,63.10
2018-09-18T01:17:25.055Z,63.10
2018-09-18T01:17:56.950Z,63.10
2018-09-18T01:18:28.814Z,63.20
2018-09-18T01:19:00.621Z,63.20
2018-09-18T01:19:32.438Z,63.10
2018-09-18T01:20:04.264Z,63.20
2018-09-18T01:20:36.075Z,63.10
2018-09-18T01:21:08.273Z,63.10
2018-09-18T01:21:40.157Z,63.10
2018-09-18T01:22:12.132Z,63.10
2018-09-18T01:22:44.198Z,62.60
2018-09-18T01:23:15.989Z,63.10
2018-09-18T01:23:47.806Z,63.10
2018-09-18T01:24:20.033Z,63.30
2018-09-18T01:24:51.876Z,63.10
2018-09-18T01:25:23.843Z,63.10
2018-09-18T01:25:55.683Z,63.10
2018-09-18T01:26:27.643Z,63.10
2018-09-18T01:26:59.591Z,63.00
2018-09-18T01:27:31.627Z,63.10
2018-09-18T01:28:03.404Z,63.10
2018-09-18T01:28:35.247Z,63.10
2018-09-18T01:29:07.099Z,63.10
2018-09-18T01:29:39.145Z,63.10
2018-09-18T01:30:10.943Z,63.10
2018-09-18T01:30:42.740Z,63.10
2018-09-18T01:31:14.657Z,63.10
2018-09-18T01:31:46.603Z,63.00
2018-09-18T01:32:18.558Z,63.10
2018-09-18T01:32:50.418Z,63.00
2018-09-18T01:33:22.452Z,63.00
2018-09-18T01:33:54.356Z,63.00
2018-09-18T01:34:26.253Z,63.00
2018-09-18T01:34:58.224Z,63.20
2018-09-18T01:35:30.053Z,63.00
2018-09-18T01:36:01.944Z,63.00
2018-09-18T01:36:33.748Z,63.00
2018-09-18T01:37:05.824Z,63.00
2018-09-18T01:37:37.724Z,62.90
2018-09-18T01:38:09.572Z,63.00
2018-09-18T01:38:41.934Z,63.00
2018-09-18T01:39:13.923Z,63.00
2018-09-18T01:39:45.933Z,63.10
2018-09-18T01:40:17.904Z,63.00
2018-09-18T01:40:49.703Z,63.10
2018-09-18T01:41:21.505Z,63.00
2018-09-18T01:41:53.424Z,63.10
2018-09-18T01:42:25.215Z,63.10
2018-09-18T01:42:57.128Z,63.10
2018-09-18T01:43:29.080Z,63.10
2018-09-18T01:44:00.897Z,62.90
2018-09-18T01:44:32.891Z,62.90
2018-09-18T01:45:04.723Z,63.00
2018-09-18T01:45:36.583Z,63.00
2018-09-18T01:46:08.372Z,62.80
2018-09-18T01:46:40.165Z,63.00
2018-09-18T01:47:12.324Z,63.00
2018-09-18T01:47:44.193Z,63.00
2018-09-18T01:48:15.987Z,63.00
2018-09-18T01:48:48.124Z,63.00
2018-09-18T01:49:19.923Z,63.00
2018-09-18T01:49:51.710Z,63.00
2018-09-18T01:50:23.552Z,63.00
2018-09-18T01:50:55.513Z,62.90
2018-09-18T01:51:27.346Z,63.00
2018-09-18T01:51:59.253Z,62.90
2018-09-18T01:52:31.079Z,63.00
2018-09-18T01:53:03.109Z,62.90
2018-09-18T01:53:34.909Z,62.90
2018-09-18T01:54:06.952Z,63.00
2018-09-18T01:54:38.856Z,63.00
2018-09-18T01:55:10.900Z,63.00
2018-09-18T01:55:42.703Z,62.90
2018-09-18T01:56:14.525Z,63.00
2018-09-18T01:56:46.436Z,63.00
2018-09-18T01:57:18.262Z,62.80
2018-09-18T01:57:50.057Z,62.80
2018-09-18T01:58:21.862Z,63.60
2018-09-18T01:58:53.791Z,62.90
2018-09-18T01:59:25.685Z,62.80
2018-09-18T01:59:57.688Z,62.80
2018-09-18T02:00:29.541Z,62.90
2018-09-18T02:01:01.362Z,63.00
2018-09-18T02:01:33.174Z,62.90
2018-09-18T02:02:05.026Z,63.00
2018-09-18T02:02:36.790Z,62.80
2018-09-18T02:03:08.691Z,63.00
2018-09-18T02:03:40.482Z,62.90
2018-09-18T02:04:12.451Z,62.80
2018-09-18T02:04:44.221Z,62.80
2018-09-18T02:05:16.023Z,62.80
2018-09-18T02:05:47.829Z,62.80
2018-09-18T02:06:19.776Z,62.80
2018-09-18T02:06:51.871Z,62.90
2018-09-18T02:07:23.717Z,62.90
2018-09-18T02:07:55.812Z,62.80
2018-09-18T02:08:27.623Z,62.80
2018-09-18T02:08:59.652Z,62.80
2018-09-18T02:09:31.475Z,62.80
2018-09-18T02:10:03.342Z,62.90
2018-09-18T02:10:35.562Z,63.10
2018-09-18T02:11:07.431Z,62.90
2018-09-18T02:11:39.226Z,62.80
2018-09-18T02:12:11.084Z,62.80
2018-09-18T02:12:43.069Z,62.80
2018-09-18T02:13:14.872Z,62.80
2018-09-18T02:13:46.791Z,62.90
2018-09-18T02:14:18.672Z,62.80
2018-09-18T02:14:50.564Z,62.80
2018-09-18T02:15:22.506Z,62.80
2018-09-18T02:15:54.566Z,62.80
2018-09-18T02:16:26.591Z,62.80
2018-09-18T02:16:58.498Z,62.80
2018-09-18T02:17:30.340Z,62.80
2018-09-18T02:18:02.177Z,62.80
2018-09-18T02:18:34.272Z,62.80
2018-09-18T02:19:06.052Z,62.80
2018-09-18T02:19:37.881Z,62.70
2018-09-18T02:20:09.682Z,62.80
2018-09-18T02:20:41.695Z,62.80
2018-09-18T02:21:13.512Z,62.70
2018-09-18T02:21:45.307Z,62.70
2018-09-18T02:22:17.263Z,62.70
2018-09-18T02:22:49.131Z,62.70
2018-09-18T02:23:20.983Z,62.70
2018-09-18T02:23:53.012Z,62.70
2018-09-18T02:24:25.029Z,62.70
2018-09-18T02:24:56.869Z,62.70
2018-09-18T02:25:29.140Z,62.70
2018-09-18T02:26:00.933Z,62.70
2018-09-18T02:26:32.709Z,63.40
2018-09-18T02:27:04.582Z,62.80
2018-09-18T02:27:36.391Z,63.40
2018-09-18T02:28:08.192Z,62.70
2018-09-18T02:28:40.005Z,62.70
2018-09-18T02:29:11.984Z,62.70
2018-09-18T02:29:43.805Z,62.70
2018-09-18T02:30:15.705Z,62.80
2018-09-18T02:30:47.670Z,62.70
2018-09-18T02:31:19.520Z,62.80
2018-09-18T02:31:51.526Z,62.80
2018-09-18T02:32:23.402Z,62.80
2018-09-18T02:32:55.221Z,62.80
2018-09-18T02:33:27.060Z,62.70
2018-09-18T02:33:58.965Z,62.80
2018-09-18T02:34:30.979Z,62.80
2018-09-18T02:35:02.807Z,62.30
2018-09-18T02:35:34.960Z,62.80
2018-09-18T02:36:06.837Z,62.80
2018-09-18T02:36:38.652Z,62.80
2018-09-18T02:37:10.577Z,62.80
2018-09-18T02:37:42.399Z,62.70
2018-09-18T02:38:14.212Z,63.50
2018-09-18T02:38:46.002Z,62.70
2018-09-18T02:39:17.917Z,62.70
2018-09-18T02:39:49.816Z,62.70
2018-09-18T02:40:21.802Z,62.70
2018-09-18T02:40:53.965Z,62.80
2018-09-18T02:41:25.819Z,62.80
2018-09-18T02:41:57.646Z,62.70
2018-09-18T02:42:29.563Z,62.70
2018-09-18T02:43:01.413Z,62.80
2018-09-18T02:43:33.309Z,62.70
2018-09-18T02:44:05.135Z,62.70
2018-09-18T02:44:36.932Z,62.70
2018-09-18T02:45:08.745Z,62.70
2018-09-18T02:45:40.590Z,62.70
2018-09-18T02:46:12.859Z,62.70
2018-09-18T02:46:44.784Z,62.70
2018-09-18T02:47:16.644Z,62.80
2018-09-18T02:47:48.421Z,62.80
2018-09-18T02:48:20.209Z,62.80
2018-09-18T02:48:51.981Z,62.80
2018-09-18T02:49:23.810Z,62.90
2018-09-18T02:49:55.763Z,62.80
2018-09-18T02:50:27.615Z,62.90
2018-09-18T02:50:59.420Z,62.80
2018-09-18T02:51:31.303Z,62.80
2018-09-18T02:52:03.148Z,62.90
2018-09-18T02:52:35.119Z,62.80
2018-09-18T02:53:07.034Z,63.60
2018-09-18T02:53:38.944Z,62.70
2018-09-18T02:54:10.757Z,62.90
2018-09-18T02:54:42.538Z,62.80
2018-09-18T02:55:14.344Z,62.80
2018-09-18T02:55:46.147Z,62.20
2018-09-18T02:56:18.130Z,62.60
2018-09-18T02:56:50.056Z,62.70
2018-09-18T02:57:21.836Z,62.80
2018-09-18T02:57:53.661Z,62.80
2018-09-18T02:58:25.463Z,62.80
2018-09-18T02:58:57.304Z,62.80
2018-09-18T02:59:29.106Z,62.70
2018-09-18T03:00:01.200Z,62.70
2018-09-18T03:00:33.166Z,62.70
2018-09-18T03:01:05.138Z,62.70
2018-09-18T03:01:37.004Z,63.50
2018-09-18T03:02:08.855Z,62.80
2018-09-18T03:02:40.655Z,62.70
2018-09-18T03:03:12.537Z,62.80
2018-09-18T03:03:44.546Z,62.70
2018-09-18T03:04:16.396Z,62.70
2018-09-18T03:04:48.305Z,62.70
2018-09-18T03:05:20.092Z,62.70
2018-09-18T03:05:52.102Z,62.70
2018-09-18T03:06:24.198Z,62.80
2018-09-18T03:06:56.154Z,62.70
2018-09-18T03:07:28.163Z,63.50
2018-09-18T03:08:00.171Z,62.60
2018-09-18T03:08:32.046Z,62.70
2018-09-18T03:09:03.992Z,62.70
2018-09-18T03:09:35.929Z,62.70
2018-09-18T03:10:07.852Z,62.70
2018-09-18T03:10:39.805Z,62.70
2018-09-18T03:11:11.801Z,62.80
2018-09-18T03:11:43.890Z,62.70
2018-09-18T03:12:15.820Z,62.70
2018-09-18T03:12:47.689Z,62.70
2018-09-18T03:13:19.518Z,62.70
2018-09-18T03:13:51.756Z,62.70
2018-09-18T03:14:23.657Z,62.70
2018-09-18T03:14:55.694Z,62.70
2018-09-18T03:15:27.689Z,62.70
2018-09-18T03:15:59.527Z,62.70
2018-09-18T03:16:31.356Z,62.70
2018-09-18T03:17:03.197Z,62.70
2018-09-18T03:17:35.289Z,62.70
2018-09-18T03:18:07.116Z,62.80
2018-09-18T03:18:39.030Z,62.70
2018-09-18T03:19:10.924Z,62.70
2018-09-18T03:19:42.847Z,62.70
2018-09-18T03:20:14.610Z,62.70
2018-09-18T03:20:46.440Z,62.60
2018-09-18T03:21:18.255Z,62.60
2018-09-18T03:21:50.168Z,62.70
2018-09-18T03:22:22.046Z,62.70
2018-09-18T03:22:53.862Z,62.80
2018-09-18T03:23:25.868Z,62.80
2018-09-18T03:23:57.696Z,63.40
2018-09-18T03:24:29.534Z,62.90
2018-09-18T03:25:01.373Z,62.70
2018-09-18T03:25:33.240Z,62.70
2018-09-18T03:26:05.093Z,62.70
2018-09-18T03:26:36.988Z,62.70
2018-09-18T03:27:08.789Z,62.70
2018-09-18T03:27:40.741Z,62.70
2018-09-18T03:28:12.553Z,62.90
2018-09-18T03:28:44.363Z,62.80
2018-09-18T03:29:16.158Z,62.70
2018-09-18T03:29:48.121Z,62.80
2018-09-18T03:30:19.969Z,62.80
2018-09-18T03:30:51.804Z,62.80
2018-09-18T03:31:23.648Z,62.80
2018-09-18T03:31:55.536Z,62.80
2018-09-18T03:32:27.500Z,62.80
2018-09-18T03:32:59.553Z,62.80
2018-09-18T03:33:31.519Z,62.20
2018-09-18T03:34:03.308Z,62.80
2018-09-18T03:34:35.154Z,62.80
2018-09-18T03:35:07.156Z,62.80
2018-09-18T03:35:39.261Z,62.80
2018-09-18T03:36:11.219Z,62.70
2018-09-18T03:36:43.024Z,62.70
2018-09-18T03:37:14.959Z,62.70
2018-09-18T03:37:46.753Z,62.70
2018-09-18T03:38:18.672Z,62.80
2018-09-18T03:38:50.521Z,62.80
2018-09-18T03:39:22.380Z,62.70
2018-09-18T03:39:54.182Z,62.70
2018-09-18T03:40:26.250Z,62.70
2018-09-18T03:40:58.042Z,62.70
2018-09-18T03:41:29.942Z,62.60
2018-09-18T03:42:02.149Z,62.70
2018-09-18T03:42:34.144Z,62.60
2018-09-18T03:43:05.955Z,62.80
2018-09-18T03:43:37.920Z,62.60
2018-09-18T03:44:10.171Z,62.60
2018-09-18T03:44:42.041Z,62.60
2018-09-18T03:45:13.900Z,62.60
2018-09-18T03:45:45.779Z,62.60
2018-09-18T03:46:17.600Z,62.60
2018-09-18T03:46:49.631Z,62.60
2018-09-18T03:47:21.440Z,62.60
2018-09-18T03:47:53.592Z,62.60
2018-09-18T03:48:25.491Z,63.30
2018-09-18T03:48:57.582Z,62.60
2018-09-18T03:49:29.424Z,62.60
2018-09-18T03:50:01.382Z,62.60
2018-09-18T03:50:33.381Z,62.60
2018-09-18T03:51:05.154Z,62.60
2018-09-18T03:51:37.130Z,62.50
2018-09-18T03:52:08.983Z,62.40
2018-09-18T03:52:40.796Z,62.50
2018-09-18T03:53:12.583Z,62.50
2018-09-18T03:53:44.480Z,62.50
2018-09-18T03:54:16.277Z,62.50
2018-09-18T03:54:48.090Z,62.50
2018-09-18T03:55:19.993Z,63.20
2018-09-18T03:55:51.766Z,62.50
2018-09-18T03:56:23.920Z,62.50
2018-09-18T03:56:55.746Z,62.50
2018-09-18T03:57:27.558Z,62.50
2018-09-18T03:57:59.468Z,62.50
2018-09-18T03:58:31.376Z,62.50
2018-09-18T03:59:03.451Z,62.50
2018-09-18T03:59:35.295Z,62.50
2018-09-18T04:00:07.120Z,62.50
2018-09-18T04:00:39.085Z,62.50
2018-09-18T04:01:10.924Z,62.50
2018-09-18T04:01:42.716Z,62.50
2018-09-18T04:02:14.503Z,62.50
2018-09-18T04:02:46.351Z,62.50
2018-09-18T04:03:18.411Z,62.50
2018-09-18T04:03:50.241Z,62.40
2018-09-18T04:04:22.130Z,62.40
2018-09-18T04:04:54.261Z,62.50
2018-09-18T04:05:26.087Z,62.50
2018-09-18T04:05:57.868Z,62.50
2018-09-18T04:06:29.875Z,62.50
2018-09-18T04:07:01.928Z,62.50
2018-09-18T04:07:33.760Z,62.50
2018-09-18T04:08:05.844Z,62.50
2018-09-18T04:08:37.920Z,62.50
2018-09-18T04:09:09.757Z,62.50
2018-09-18T04:09:41.672Z,62.50
2018-09-18T04:10:13.705Z,62.50
2018-09-18T04:10:45.832Z,62.60
2018-09-18T04:11:17.644Z,62.60
2018-09-18T04:11:49.517Z,62.50
2018-09-18T04:12:21.362Z,62.60
2018-09-18T04:12:53.283Z,62.50
2018-09-18T04:13:25.137Z,62.50
2018-09-18T04:13:57.096Z,62.50
2018-09-18T04:14:29.101Z,62.50
2018-09-18T04:15:01.143Z,62.50
2018-09-18T04:15:33.076Z,62.90
2018-09-18T04:16:04.916Z,62.50
2018-09-18T04:16:36.812Z,62.50
2018-09-18T04:17:08.795Z,62.50
2018-09-18T04:17:40.738Z,62.50
2018-09-18T04:18:12.532Z,62.50
2018-09-18T04:18:44.324Z,62.50
2018-09-18T04:19:16.109Z,62.50
2018-09-18T04:19:47.900Z,62.50
2018-09-18T04:20:19.963Z,62.50
2018-09-18T04:20:52.162Z,62.40
2018-09-18T04:21:24.122Z,62.30
2018-09-18T04:21:55.913Z,63.10
2018-09-18T04:22:27.753Z,62.50
2018-09-18T04:22:59.569Z,62.50
2018-09-18T04:23:31.456Z,62.30
2018-09-18T04:24:03.401Z,62.50
2018-09-18T04:24:35.467Z,62.40
2018-09-18T04:25:07.332Z,62.40
2018-09-18T04:25:39.185Z,61.90
2018-09-18T04:26:11.014Z,62.20
2018-09-18T04:26:42.808Z,62.40
2018-09-18T04:27:14.697Z,62.40
2018-09-18T04:27:46.625Z,62.50
2018-09-18T04:28:18.445Z,62.50
2018-09-18T04:28:50.258Z,62.30
2018-09-18T04:29:22.083Z,62.30
2018-09-18T04:29:54.005Z,62.50
2018-09-18T04:30:25.793Z,62.30
2018-09-18T04:30:57.622Z,62.30
2018-09-18T04:31:29.543Z,62.40
2018-09-18T04:32:01.523Z,62.30
2018-09-18T04:32:33.697Z,62.40
2018-09-18T04:33:05.696Z,62.20
2018-09-18T04:33:37.635Z,62.30
2018-09-18T04:34:09.502Z,62.50
2018-09-18T04:34:41.517Z,63.20
2018-09-18T04:35:13.397Z,62.40
2018-09-18T04:35:45.311Z,62.50
2018-09-18T04:36:17.468Z,62.50
2018-09-18T04:36:49.493Z,62.40
2018-09-18T04:37:21.366Z,62.40
2018-09-18T04:37:53.365Z,62.50
2018-09-18T04:38:25.198Z,62.40
2018-09-18T04:38:57.032Z,62.50
2018-09-18T04:39:28.981Z,62.40
2018-09-18T04:40:00.780Z,62.50
2018-09-18T04:40:33.042Z,62.60
2018-09-18T04:41:04.911Z,62.60
2018-09-18T04:41:36.728Z,62.40
2018-09-18T04:42:08.666Z,62.40
2018-09-18T04:42:40.656Z,62.40
2018-09-18T04:43:12.650Z,62.40
2018-09-18T04:43:44.462Z,62.50
2018-09-18T04:44:16.546Z,62.40
2018-09-18T04:44:48.600Z,62.50
2018-09-18T04:45:20.464Z,62.50
2018-09-18T04:45:52.237Z,63.20
2018-09-18T04:46:24.153Z,62.50
2018-09-18T04:46:56.112Z,62.50
2018-09-18T04:47:27.929Z,62.50
2018-09-18T04:47:59.795Z,62.50
2018-09-18T04:48:31.631Z,62.50
2018-09-18T04:49:03.597Z,62.50
2018-09-18T04:49:35.362Z,62.50
2018-09-18T04:50:07.317Z,62.60
2018-09-18T04:50:39.406Z,62.50
2018-09-18T04:51:11.214Z,62.50
2018-09-18T04:51:43.081Z,62.50
2018-09-18T04:52:14.968Z,62.50
2018-09-18T04:52:47.023Z,62.50
2018-09-18T04:53:18.854Z,62.50
2018-09-18T04:53:50.654Z,62.60
2018-09-18T04:54:22.474Z,62.50
2018-09-18T04:54:54.266Z,62.50
2018-09-18T04:55:26.277Z,62.50
2018-09-18T04:55:58.165Z,62.60
2018-09-18T04:56:29.968Z,62.50
2018-09-18T04:57:01.771Z,63.00
2018-09-18T04:57:33.585Z,62.60
2018-09-18T04:58:05.392Z,62.60
2018-09-18T04:58:37.385Z,62.60
2018-09-18T04:59:09.192Z,62.60
2018-09-18T04:59:41.025Z,62.60
2018-09-18T05:00:12.862Z,62.60
2018-09-18T05:00:44.640Z,62.60
2018-09-18T05:01:16.603Z,62.60
2018-09-18T05:01:48.501Z,62.60
2018-09-18T05:02:20.325Z,62.60
2018-09-18T05:02:52.225Z,62.60
2018-09-18T05:03:24.050Z,62.60
2018-09-18T05:03:56.017Z,62.60
2018-09-18T05:04:27.881Z,62.60
2018-09-18T05:04:59.752Z,62.70
2018-09-18T05:05:31.595Z,62.60
2018-09-18T05:06:03.404Z,62.60
2018-09-18T05:06:35.245Z,62.70
2018-09-18T05:07:07.218Z,62.60
2018-09-18T05:07:39.114Z,62.60
2018-09-18T05:08:10.923Z,62.60
2018-09-18T05:08:42.903Z,62.70
2018-09-18T05:09:15.038Z,62.70
2018-09-18T05:09:46.866Z,62.60
2018-09-18T05:10:18.784Z,62.70
2018-09-18T05:10:51.021Z,62.60
2018-09-18T05:11:23.386Z,62.60
2018-09-18T05:11:55.549Z,62.60
2018-09-18T05:12:27.617Z,62.60
2018-09-18T05:12:59.396Z,62.60
2018-09-18T05:13:31.367Z,62.60
2018-09-18T05:14:03.300Z,62.60
2018-09-18T05:14:35.436Z,62.70
2018-09-18T05:15:07.280Z,62.80
2018-09-18T05:15:39.324Z,62.70
2018-09-18T05:16:11.212Z,62.70
2018-09-18T05:16:43.135Z,62.60
2018-09-18T05:17:14.957Z,62.70
2018-09-18T05:17:46.756Z,62.70
2018-09-18T05:18:18.580Z,62.70
2018-09-18T05:18:50.474Z,62.80
2018-09-18T05:19:22.339Z,62.70
2018-09-18T05:19:54.164Z,62.80
2018-09-18T05:20:26.112Z,62.80
2018-09-18T05:20:57.997Z,62.80
2018-09-18T05:21:29.795Z,62.50
2018-09-18T05:22:01.599Z,62.80
2018-09-18T05:22:33.474Z,62.90
2018-09-18T05:23:05.302Z,62.90
2018-09-18T05:23:37.155Z,62.90
2018-09-18T05:24:09.068Z,62.90
2018-09-18T05:24:40.885Z,62.90
2018-09-18T05:25:12.720Z,62.90
2018-09-18T05:25:44.565Z,62.90
2018-09-18T05:26:16.371Z,62.90
2018-09-18T05:26:48.189Z,62.90
2018-09-18T05:27:20.052Z,62.90
2018-09-18T05:27:52.076Z,62.80
2018-09-18T05:28:23.894Z,63.40
2018-09-18T05:28:55.793Z,62.90
2018-09-18T05:29:27.780Z,63.30
2018-09-18T05:29:59.692Z,62.80
2018-09-18T05:30:31.665Z,62.80
2018-09-18T05:31:03.487Z,62.80
2018-09-18T05:31:35.401Z,62.80
2018-09-18T05:32:07.276Z,62.80
2018-09-18T05:32:39.097Z,62.90
2018-09-18T05:33:10.974Z,62.90
2018-09-18T05:33:42.794Z,63.00
2018-09-18T05:34:14.863Z,62.90
2018-09-18T05:34:46.784Z,62.90
2018-09-18T05:35:18.643Z,62.90
2018-09-18T05:35:50.473Z,62.90
2018-09-18T05:36:22.314Z,62.90
2018-09-18T05:36:54.404Z,63.30
2018-09-18T05:37:26.253Z,63.50
2018-09-18T05:37:58.061Z,62.90
2018-09-18T05:38:29.889Z,62.80
2018-09-18T05:39:01.990Z,62.80
2018-09-18T05:39:33.779Z,62.70
2018-09-18T05:40:05.624Z,62.80
2018-09-18T05:40:37.444Z,62.80
2018-09-18T05:41:09.232Z,62.80
2018-09-18T05:41:41.065Z,62.70
2018-09-18T05:42:12.973Z,62.80
2018-09-18T05:42:44.761Z,62.70
2018-09-18T05:43:16.712Z,62.70
2018-09-18T05:43:48.675Z,62.70
2018-09-18T05:44:20.518Z,62.70
2018-09-18T05:44:52.476Z,62.80
2018-09-18T05:45:24.296Z,62.60
2018-09-18T05:45:56.123Z,62.60
2018-09-18T05:46:27.955Z,62.60
2018-09-18T05:47:00.034Z,62.60
2018-09-18T05:47:31.842Z,62.60
2018-09-18T05:48:03.685Z,62.60
2018-09-18T05:48:35.666Z,62.60
2018-09-18T05:49:07.691Z,62.60
2018-09-18T05:49:39.567Z,62.60
2018-09-18T05:50:11.414Z,62.60
2018-09-18T05:50:43.204Z,62.60
2018-09-18T05:51:15.028Z,62.70
2018-09-18T05:51:46.836Z,62.70
2018-09-18T05:52:18.831Z,62.70
2018-09-18T05:52:50.684Z,62.60
2018-09-18T05:53:22.480Z,62.70
2018-09-18T05:53:54.493Z,62.70
2018-09-18T05:54:26.366Z,62.70
2018-09-18T05:54:58.196Z,62.70
2018-09-18T05:55:30.122Z,62.70
2018-09-18T05:56:02.126Z,62.70
2018-09-18T05:56:33.965Z,62.70
2018-09-18T05:57:05.818Z,62.70
2018-09-18T05:57:37.635Z,62.60
2018-09-18T05:58:09.652Z,62.60
2018-09-18T05:58:41.470Z,62.70
2018-09-18T05:59:13.353Z,62.60
2018-09-18T05:59:45.184Z,62.60
2018-09-18T06:00:17.167Z,62.70
2018-09-18T06:00:49.104Z,62.60
2018-09-18T06:01:20.978Z,62.70
2018-09-18T06:01:52.767Z,63.30
2018-09-18T06:02:24.682Z,62.60
2018-09-18T06:02:56.545Z,62.60
2018-09-18T06:03:28.457Z,62.60
2018-09-18T06:04:00.296Z,62.60
2018-09-18T06:04:32.068Z,62.70
2018-09-18T06:05:03.905Z,62.60
2018-09-18T06:05:35.984Z,62.60
2018-09-18T06:06:08.019Z,62.60
2018-09-18T06:06:40.005Z,62.50
2018-09-18T06:07:11.823Z,62.50
2018-09-18T06:07:43.716Z,62.60
2018-09-18T06:08:15.519Z,62.50
2018-09-18T06:08:47.340Z,62.50
2018-09-18T06:09:19.134Z,62.50
2018-09-18T06:09:51.021Z,62.50
2018-09-18T06:10:23.082Z,62.50
2018-09-18T06:10:55.068Z,62.60
2018-09-18T06:11:26.903Z,62.60
2018-09-18T06:11:58.803Z,62.60
2018-09-18T06:12:30.807Z,63.30
2018-09-18T06:13:02.838Z,62.70
2018-09-18T06:13:34.623Z,62.60
2018-09-18T06:14:06.464Z,62.60
2018-09-18T06:14:38.261Z,62.60
2018-09-18T06:15:10.128Z,62.60
2018-09-18T06:15:41.922Z,62.60
2018-09-18T06:16:13.721Z,62.60
2018-09-18T06:16:45.558Z,62.50
2018-09-18T06:17:17.323Z,62.60
2018-09-18T06:17:49.330Z,62.60
2018-09-18T06:18:21.103Z,62.50
2018-09-18T06:18:53.119Z,62.50
2018-09-18T06:19:25.268Z,62.50
2018-09-18T06:19:57.123Z,62.50
2018-09-18T06:20:28.969Z,62.50
2018-09-18T06:21:00.788Z,62.50
2018-09-18T06:21:32.693Z,62.50
2018-09-18T06:22:04.503Z,62.50
2018-09-18T06:22:36.408Z,62.40
2018-09-18T06:23:08.283Z,62.40
2018-09-18T06:23:40.145Z,62.40
2018-09-18T06:24:11.960Z,62.40
2018-09-18T06:24:43.755Z,62.50
2018-09-18T06:25:15.772Z,62.50
2018-09-18T06:25:47.789Z,62.60
2018-09-18T06:26:19.782Z,62.50
2018-09-18T06:26:51.720Z,62.50
2018-09-18T06:27:23.741Z,62.50
2018-09-18T06:27:55.633Z,62.50
2018-09-18T06:28:27.791Z,62.50
2018-09-18T06:28:59.634Z,62.50
2018-09-18T06:29:31.449Z,62.50
2018-09-18T06:30:03.360Z,62.50
2018-09-18T06:30:35.260Z,62.40
2018-09-18T06:31:07.075Z,62.50
2018-09-18T06:31:38.849Z,62.50
2018-09-18T06:32:10.830Z,62.50
2018-09-18T06:32:42.691Z,62.50
2018-09-18T06:33:14.474Z,62.50
2018-09-18T06:33:46.410Z,62.40
2018-09-18T06:34:18.366Z,62.40
2018-09-18T06:34:50.321Z,62.40
2018-09-18T06:35:22.191Z,62.40
2018-09-18T06:35:53.989Z,62.40
2018-09-18T06:36:25.852Z,62.40
2018-09-18T06:36:58.030Z,62.40
2018-09-18T06:37:30.056Z,62.40
2018-09-18T06:38:01.930Z,62.40
2018-09-18T06:38:33.747Z,62.40
2018-09-18T06:39:05.594Z,62.40
2018-09-18T06:39:37.644Z,62.40
2018-09-18T06:40:09.530Z,62.40
2018-09-18T06:40:41.717Z,62.40
2018-09-18T06:41:13.820Z,62.40
2018-09-18T06:41:45.751Z,62.40
2018-09-18T06:42:17.647Z,62.40
2018-09-18T06:42:49.660Z,62.40
2018-09-18T06:43:21.535Z,62.40
2018-09-18T06:43:53.350Z,62.50
2018-09-18T06:44:25.245Z,62.50
2018-09-18T06:44:57.141Z,62.50
2018-09-18T06:45:28.955Z,62.40
2018-09-18T06:46:00.908Z,62.40
2018-09-18T06:46:32.703Z,62.40
2018-09-18T06:47:04.527Z,62.50
2018-09-18T06:47:36.370Z,62.40
2018-09-18T06:48:08.259Z,62.40
2018-09-18T06:48:40.194Z,62.40
2018-09-18T06:49:12.059Z,62.40
2018-09-18T06:49:43.938Z,62.50
2018-09-18T06:50:15.840Z,62.50
2018-09-18T06:50:47.689Z,62.60